sensor_id;sensor_type;location;lat;lon;timestamp;P1;durP1;ratioP1;P2;durP2;ratioP2
61785;SDS011;47692;53.714;11.372;2024-03-08T00:01:35;18.60;;;8.18;;
61785;SDS011;47692;53.714;11.372;2024-03-08T00:04:00;19.08;;;8.15;;
61785;SDS011;47692;53.714;11.372;2024-03-08T00:06:26;16.50;;;7.00;;
61785;SDS011;47692;53.714;11.372;2024-03-08T00:08:51;15.32;;;7.15;;
61785;SDS011;47692;53.714;11.372;2024-03-08T00:11:16;15.73;;;7.00;;
61785;SDS011;47692;53.714;11.372;2024-03-08T00:13:42;15.55;;;7.38;;
61785;SDS011;47692;53.714;11.372;2024-03-08T00:16:07;14.07;;;7.38;;
61785;SDS011;47692;53.714;11.372;2024-03-08T00:18:34;17.30;;;7.75;;
61785;SDS011;47692;53.714;11.372;2024-03-08T00:21:00;17.27;;;7.55;;
61785;SDS011;47692;53.714;11.372;2024-03-08T00:23:25;13.45;;;6.82;;
61785;SDS011;47692;53.714;11.372;2024-03-08T00:25:51;17.95;;;7.07;;
61785;SDS011;47692;53.714;11.372;2024-03-08T00:28:16;14.90;;;7.43;;
61785;SDS011;47692;53.714;11.372;2024-03-08T00:30:43;18.98;;;7.47;;
61785;SDS011;47692;53.714;11.372;2024-03-08T00:33:10;14.65;;;7.13;;
61785;SDS011;47692;53.714;11.372;2024-03-08T00:35:35;13.10;;;6.97;;
61785;SDS011;47692;53.714;11.372;2024-03-08T00:38:01;18.00;;;7.70;;
61785;SDS011;47692;53.714;11.372;2024-03-08T00:40:26;17.83;;;7.18;;
61785;SDS011;47692;53.714;11.372;2024-03-08T00:42:53;16.38;;;7.07;;
61785;SDS011;47692;53.714;11.372;2024-03-08T00:45:18;13.65;;;6.65;;
61785;SDS011;47692;53.714;11.372;2024-03-08T00:47:43;19.73;;;7.55;;
61785;SDS011;47692;53.714;11.372;2024-03-08T00:50:09;19.13;;;7.57;;
61785;SDS011;47692;53.714;11.372;2024-03-08T00:52:35;15.52;;;6.85;;
61785;SDS011;47692;53.714;11.372;2024-03-08T00:55:01;16.17;;;7.70;;
61785;SDS011;47692;53.714;11.372;2024-03-08T00:57:27;14.27;;;6.97;;
61785;SDS011;47692;53.714;11.372;2024-03-08T00:59:52;14.40;;;7.25;;
61785;SDS011;47692;53.714;11.372;2024-03-08T01:02:18;16.42;;;8.30;;
61785;SDS011;47692;53.714;11.372;2024-03-08T01:04:44;18.25;;;7.93;;
61785;SDS011;47692;53.714;11.372;2024-03-08T01:07:09;14.65;;;7.22;;
61785;SDS011;47692;53.714;11.372;2024-03-08T01:09:35;17.98;;;7.82;;
61785;SDS011;47692;53.714;11.372;2024-03-08T01:12:01;16.95;;;7.32;;
61785;SDS011;47692;53.714;11.372;2024-03-08T01:14:26;15.68;;;7.82;;
61785;SDS011;47692;53.714;11.372;2024-03-08T01:16:52;14.80;;;6.93;;
61785;SDS011;47692;53.714;11.372;2024-03-08T01:19:17;15.60;;;7.93;;
61785;SDS011;47692;53.714;11.372;2024-03-08T01:21:43;18.98;;;7.93;;
61785;SDS011;47692;53.714;11.372;2024-03-08T01:24:08;16.23;;;7.78;;
61785;SDS011;47692;53.714;11.372;2024-03-08T01:26:34;20.88;;;8.00;;
61785;SDS011;47692;53.714;11.372;2024-03-08T01:28:59;14.85;;;7.38;;
61785;SDS011;47692;53.714;11.372;2024-03-08T01:31:26;16.75;;;7.95;;
61785;SDS011;47692;53.714;11.372;2024-03-08T01:33:53;17.40;;;8.15;;
61785;SDS011;47692;53.714;11.372;2024-03-08T01:36:19;17.58;;;8.43;;
61785;SDS011;47692;53.714;11.372;2024-03-08T01:38:45;20.33;;;9.57;;
61785;SDS011;47692;53.714;11.372;2024-03-08T01:41:10;19.20;;;9.05;;
61785;SDS011;47692;53.714;11.372;2024-03-08T01:43:37;20.77;;;9.82;;
61785;SDS011;47692;53.714;11.372;2024-03-08T01:46:03;20.13;;;8.90;;
61785;SDS011;47692;53.714;11.372;2024-03-08T01:48:30;21.25;;;8.90;;
61785;SDS011;47692;53.714;11.372;2024-03-08T01:50:57;20.52;;;10.10;;
61785;SDS011;47692;53.714;11.372;2024-03-08T01:53:23;21.27;;;9.25;;
61785;SDS011;47692;53.714;11.372;2024-03-08T01:55:49;20.92;;;9.10;;
61785;SDS011;47692;53.714;11.372;2024-03-08T01:58:17;19.70;;;8.55;;
61785;SDS011;47692;53.714;11.372;2024-03-08T02:00:45;23.45;;;9.18;;
61785;SDS011;47692;53.714;11.372;2024-03-08T02:03:14;21.05;;;9.27;;
61785;SDS011;47692;53.714;11.372;2024-03-08T02:05:40;23.85;;;10.63;;
61785;SDS011;47692;53.714;11.372;2024-03-08T02:08:06;25.20;;;10.98;;
61785;SDS011;47692;53.714;11.372;2024-03-08T02:10:33;21.38;;;9.50;;
61785;SDS011;47692;53.714;11.372;2024-03-08T02:13:00;24.55;;;10.15;;
61785;SDS011;47692;53.714;11.372;2024-03-08T02:15:42;25.40;;;9.38;;
61785;SDS011;47692;53.714;11.372;2024-03-08T02:18:15;23.00;;;10.88;;
61785;SDS011;47692;53.714;11.372;2024-03-08T02:20:42;30.02;;;11.07;;
61785;SDS011;47692;53.714;11.372;2024-03-08T02:23:07;26.35;;;11.13;;
61785;SDS011;47692;53.714;11.372;2024-03-08T02:25:33;24.30;;;10.70;;
61785;SDS011;47692;53.714;11.372;2024-03-08T02:27:59;26.67;;;11.13;;
61785;SDS011;47692;53.714;11.372;2024-03-08T02:30:24;27.05;;;11.73;;
61785;SDS011;47692;53.714;11.372;2024-03-08T02:32:54;30.02;;;11.93;;
61785;SDS011;47692;53.714;11.372;2024-03-08T02:35:20;29.35;;;10.70;;
61785;SDS011;47692;53.714;11.372;2024-03-08T02:37:45;26.58;;;11.35;;
61785;SDS011;47692;53.714;11.372;2024-03-08T02:40:12;28.13;;;11.63;;
61785;SDS011;47692;53.714;11.372;2024-03-08T02:42:38;31.55;;;12.23;;
61785;SDS011;47692;53.714;11.372;2024-03-08T02:45:04;29.88;;;11.27;;
61785;SDS011;47692;53.714;11.372;2024-03-08T02:47:30;28.85;;;12.30;;
61785;SDS011;47692;53.714;11.372;2024-03-08T02:49:56;31.13;;;12.75;;
61785;SDS011;47692;53.714;11.372;2024-03-08T02:52:21;30.65;;;11.88;;
61785;SDS011;47692;53.714;11.372;2024-03-08T02:54:47;26.27;;;11.95;;
61785;SDS011;47692;53.714;11.372;2024-03-08T02:57:13;28.27;;;12.68;;
61785;SDS011;47692;53.714;11.372;2024-03-08T02:59:39;30.17;;;11.75;;
61785;SDS011;47692;53.714;11.372;2024-03-08T03:02:05;30.98;;;12.02;;
61785;SDS011;47692;53.714;11.372;2024-03-08T03:04:31;33.40;;;13.10;;
61785;SDS011;47692;53.714;11.372;2024-03-08T03:06:58;30.52;;;13.10;;
61785;SDS011;47692;53.714;11.372;2024-03-08T03:09:23;29.02;;;12.45;;
61785;SDS011;47692;53.714;11.372;2024-03-08T03:11:52;30.10;;;11.98;;
61785;SDS011;47692;53.714;11.372;2024-03-08T03:14:21;27.88;;;12.25;;
61785;SDS011;47692;53.714;11.372;2024-03-08T03:16:47;31.35;;;12.13;;
61785;SDS011;47692;53.714;11.372;2024-03-08T03:19:12;29.50;;;12.93;;
61785;SDS011;47692;53.714;11.372;2024-03-08T03:21:37;28.33;;;12.75;;
61785;SDS011;47692;53.714;11.372;2024-03-08T03:24:03;26.00;;;11.68;;
61785;SDS011;47692;53.714;11.372;2024-03-08T03:26:34;30.48;;;13.13;;
61785;SDS011;47692;53.714;11.372;2024-03-08T03:29:02;31.52;;;13.65;;
61785;SDS011;47692;53.714;11.372;2024-03-08T03:31:28;28.42;;;12.82;;
61785;SDS011;47692;53.714;11.372;2024-03-08T03:33:53;33.85;;;13.60;;
61785;SDS011;47692;53.714;11.372;2024-03-08T03:36:19;32.10;;;12.90;;
61785;SDS011;47692;53.714;11.372;2024-03-08T03:38:45;28.55;;;12.07;;
61785;SDS011;47692;53.714;11.372;2024-03-08T03:41:10;31.38;;;12.90;;
61785;SDS011;47692;53.714;11.372;2024-03-08T03:43:36;32.78;;;13.38;;
61785;SDS011;47692;53.714;11.372;2024-03-08T03:46:05;32.72;;;14.05;;
61785;SDS011;47692;53.714;11.372;2024-03-08T03:48:32;34.53;;;13.13;;
61785;SDS011;47692;53.714;11.372;2024-03-08T03:50:57;28.48;;;12.10;;
61785;SDS011;47692;53.714;11.372;2024-03-08T03:53:22;29.63;;;12.98;;
61785;SDS011;47692;53.714;11.372;2024-03-08T03:55:48;35.03;;;14.05;;
61785;SDS011;47692;53.714;11.372;2024-03-08T03:58:13;25.13;;;12.15;;
61785;SDS011;47692;53.714;11.372;2024-03-08T04:00:39;32.05;;;13.45;;
61785;SDS011;47692;53.714;11.372;2024-03-08T04:03:04;31.08;;;13.23;;
61785;SDS011;47692;53.714;11.372;2024-03-08T04:05:30;27.58;;;12.52;;
61785;SDS011;47692;53.714;11.372;2024-03-08T04:07:56;33.15;;;13.95;;
61785;SDS011;47692;53.714;11.372;2024-03-08T04:10:21;31.08;;;13.05;;
61785;SDS011;47692;53.714;11.372;2024-03-08T04:12:47;29.38;;;12.38;;
61785;SDS011;47692;53.714;11.372;2024-03-08T04:15:13;32.65;;;13.55;;
61785;SDS011;47692;53.714;11.372;2024-03-08T04:17:40;35.03;;;12.90;;
61785;SDS011;47692;53.714;11.372;2024-03-08T04:20:05;30.15;;;12.20;;
61785;SDS011;47692;53.714;11.372;2024-03-08T04:22:38;29.63;;;12.40;;
61785;SDS011;47692;53.714;11.372;2024-03-08T04:25:04;27.02;;;11.63;;
61785;SDS011;47692;53.714;11.372;2024-03-08T04:27:31;24.48;;;11.27;;
61785;SDS011;47692;53.714;11.372;2024-03-08T04:29:57;30.40;;;12.52;;
61785;SDS011;47692;53.714;11.372;2024-03-08T04:32:24;32.70;;;12.60;;
61785;SDS011;47692;53.714;11.372;2024-03-08T04:34:49;30.25;;;13.30;;
61785;SDS011;47692;53.714;11.372;2024-03-08T04:37:15;25.35;;;11.75;;
61785;SDS011;47692;53.714;11.372;2024-03-08T04:39:43;29.27;;;12.48;;
61785;SDS011;47692;53.714;11.372;2024-03-08T04:42:08;31.67;;;12.65;;
61785;SDS011;47692;53.714;11.372;2024-03-08T04:44:35;25.85;;;11.90;;
61785;SDS011;47692;53.714;11.372;2024-03-08T04:47:01;29.10;;;12.50;;
61785;SDS011;47692;53.714;11.372;2024-03-08T04:49:27;29.33;;;12.15;;
61785;SDS011;47692;53.714;11.372;2024-03-08T04:51:53;26.92;;;11.68;;
61785;SDS011;47692;53.714;11.372;2024-03-08T04:54:18;25.70;;;11.20;;
61785;SDS011;47692;53.714;11.372;2024-03-08T04:56:43;27.70;;;12.05;;
61785;SDS011;47692;53.714;11.372;2024-03-08T04:59:09;26.33;;;12.23;;
61785;SDS011;47692;53.714;11.372;2024-03-08T05:01:34;27.75;;;12.45;;
61785;SDS011;47692;53.714;11.372;2024-03-08T05:04:02;29.00;;;11.60;;
61785;SDS011;47692;53.714;11.372;2024-03-08T05:06:28;28.20;;;13.20;;
61785;SDS011;47692;53.714;11.372;2024-03-08T05:08:55;25.98;;;11.65;;
61785;SDS011;47692;53.714;11.372;2024-03-08T05:11:20;26.83;;;12.27;;
61785;SDS011;47692;53.714;11.372;2024-03-08T05:13:46;29.80;;;12.43;;
61785;SDS011;47692;53.714;11.372;2024-03-08T05:16:11;28.95;;;11.77;;
61785;SDS011;47692;53.714;11.372;2024-03-08T05:18:37;28.35;;;12.27;;
61785;SDS011;47692;53.714;11.372;2024-03-08T05:21:02;26.42;;;12.07;;
61785;SDS011;47692;53.714;11.372;2024-03-08T05:23:29;27.08;;;11.05;;
61785;SDS011;47692;53.714;11.372;2024-03-08T05:25:55;30.38;;;12.40;;
61785;SDS011;47692;53.714;11.372;2024-03-08T05:28:20;28.45;;;12.10;;
61785;SDS011;47692;53.714;11.372;2024-03-08T05:30:46;29.55;;;11.48;;
61785;SDS011;47692;53.714;11.372;2024-03-08T05:33:11;32.45;;;12.07;;
61785;SDS011;47692;53.714;11.372;2024-03-08T05:35:39;29.65;;;13.63;;
61785;SDS011;47692;53.714;11.372;2024-03-08T05:38:05;30.30;;;12.13;;
61785;SDS011;47692;53.714;11.372;2024-03-08T05:40:31;28.40;;;11.73;;
61785;SDS011;47692;53.714;11.372;2024-03-08T05:42:57;32.35;;;13.50;;
61785;SDS011;47692;53.714;11.372;2024-03-08T05:45:24;29.02;;;11.75;;
61785;SDS011;47692;53.714;11.372;2024-03-08T05:47:50;30.38;;;13.05;;
61785;SDS011;47692;53.714;11.372;2024-03-08T05:50:16;29.35;;;12.00;;
61785;SDS011;47692;53.714;11.372;2024-03-08T05:52:42;34.45;;;12.52;;
61785;SDS011;47692;53.714;11.372;2024-03-08T05:55:08;31.38;;;13.13;;
61785;SDS011;47692;53.714;11.372;2024-03-08T05:57:34;32.25;;;13.13;;
61785;SDS011;47692;53.714;11.372;2024-03-08T06:00:03;35.13;;;12.45;;
61785;SDS011;47692;53.714;11.372;2024-03-08T06:02:29;33.03;;;12.95;;
61785;SDS011;47692;53.714;11.372;2024-03-08T06:04:54;33.85;;;13.10;;
61785;SDS011;47692;53.714;11.372;2024-03-08T06:07:20;32.28;;;12.18;;
61785;SDS011;47692;53.714;11.372;2024-03-08T06:09:45;34.83;;;13.18;;
61785;SDS011;47692;53.714;11.372;2024-03-08T06:12:13;31.45;;;13.15;;
61785;SDS011;47692;53.714;11.372;2024-03-08T06:14:43;33.75;;;13.43;;
61785;SDS011;47692;53.714;11.372;2024-03-08T06:17:09;31.67;;;13.38;;
61785;SDS011;47692;53.714;11.372;2024-03-08T06:19:36;33.50;;;13.20;;
61785;SDS011;47692;53.714;11.372;2024-03-08T06:22:01;38.50;;;13.65;;
61785;SDS011;47692;53.714;11.372;2024-03-08T06:24:30;34.40;;;14.57;;
61785;SDS011;47692;53.714;11.372;2024-03-08T06:27:01;34.97;;;14.45;;
61785;SDS011;47692;53.714;11.372;2024-03-08T06:29:26;31.63;;;12.82;;
61785;SDS011;47692;53.714;11.372;2024-03-08T06:31:52;35.40;;;13.50;;
61785;SDS011;47692;53.714;11.372;2024-03-08T06:34:18;36.85;;;14.60;;
61785;SDS011;47692;53.714;11.372;2024-03-08T06:36:43;28.25;;;12.38;;
61785;SDS011;47692;53.714;11.372;2024-03-08T06:39:09;33.65;;;12.63;;
61785;SDS011;47692;53.714;11.372;2024-03-08T06:41:37;30.83;;;12.55;;
61785;SDS011;47692;53.714;11.372;2024-03-08T06:44:03;36.50;;;14.38;;
61785;SDS011;47692;53.714;11.372;2024-03-08T06:46:28;33.70;;;13.30;;
61785;SDS011;47692;53.714;11.372;2024-03-08T06:48:54;34.35;;;14.02;;
61785;SDS011;47692;53.714;11.372;2024-03-08T06:51:19;36.90;;;14.32;;
61785;SDS011;47692;53.714;11.372;2024-03-08T06:53:44;35.42;;;13.90;;
61785;SDS011;47692;53.714;11.372;2024-03-08T06:56:10;34.10;;;13.10;;
61785;SDS011;47692;53.714;11.372;2024-03-08T06:58:35;29.67;;;13.25;;
61785;SDS011;47692;53.714;11.372;2024-03-08T07:01:00;34.30;;;13.40;;
61785;SDS011;47692;53.714;11.372;2024-03-08T07:03:29;37.30;;;14.40;;
61785;SDS011;47692;53.714;11.372;2024-03-08T07:05:55;34.80;;;13.05;;
61785;SDS011;47692;53.714;11.372;2024-03-08T07:08:21;37.28;;;14.68;;
61785;SDS011;47692;53.714;11.372;2024-03-08T07:10:48;34.15;;;14.27;;
61785;SDS011;47692;53.714;11.372;2024-03-08T07:13:14;39.47;;;15.02;;
61785;SDS011;47692;53.714;11.372;2024-03-08T07:15:39;34.65;;;14.10;;
61785;SDS011;47692;53.714;11.372;2024-03-08T07:18:05;35.47;;;14.57;;
61785;SDS011;47692;53.714;11.372;2024-03-08T07:20:30;35.38;;;14.05;;
61785;SDS011;47692;53.714;11.372;2024-03-08T07:22:56;35.88;;;13.63;;
61785;SDS011;47692;53.714;11.372;2024-03-08T07:25:21;33.75;;;13.82;;
61785;SDS011;47692;53.714;11.372;2024-03-08T07:27:53;40.42;;;14.68;;
61785;SDS011;47692;53.714;11.372;2024-03-08T07:30:20;32.47;;;13.80;;
61785;SDS011;47692;53.714;11.372;2024-03-08T07:33:06;35.22;;;14.07;;
61785;SDS011;47692;53.714;11.372;2024-03-08T07:35:32;34.83;;;13.80;;
61785;SDS011;47692;53.714;11.372;2024-03-08T07:37:58;34.78;;;14.45;;
61785;SDS011;47692;53.714;11.372;2024-03-08T07:40:25;38.33;;;14.55;;
61785;SDS011;47692;53.714;11.372;2024-03-08T07:42:50;30.60;;;13.52;;
61785;SDS011;47692;53.714;11.372;2024-03-08T07:45:16;34.78;;;13.45;;
61785;SDS011;47692;53.714;11.372;2024-03-08T07:47:42;36.47;;;15.43;;
61785;SDS011;47692;53.714;11.372;2024-03-08T07:50:08;36.03;;;14.80;;
61785;SDS011;47692;53.714;11.372;2024-03-08T07:52:34;36.15;;;13.98;;
61785;SDS011;47692;53.714;11.372;2024-03-08T07:54:59;32.72;;;15.00;;
61785;SDS011;47692;53.714;11.372;2024-03-08T07:57:25;37.00;;;13.90;;
61785;SDS011;47692;53.714;11.372;2024-03-08T07:59:51;35.33;;;13.93;;
61785;SDS011;47692;53.714;11.372;2024-03-08T08:02:16;40.03;;;14.95;;
61785;SDS011;47692;53.714;11.372;2024-03-08T08:04:41;41.53;;;16.25;;
61785;SDS011;47692;53.714;11.372;2024-03-08T08:07:09;38.67;;;16.42;;
61785;SDS011;47692;53.714;11.372;2024-03-08T08:09:35;40.22;;;16.30;;
61785;SDS011;47692;53.714;11.372;2024-03-08T08:12:00;39.53;;;14.73;;
61785;SDS011;47692;53.714;11.372;2024-03-08T08:14:28;40.25;;;14.15;;
61785;SDS011;47692;53.714;11.372;2024-03-08T08:16:54;41.15;;;16.77;;
61785;SDS011;47692;53.714;11.372;2024-03-08T08:19:20;42.95;;;16.75;;
61785;SDS011;47692;53.714;11.372;2024-03-08T08:21:46;46.65;;;17.60;;
61785;SDS011;47692;53.714;11.372;2024-03-08T08:24:11;42.42;;;17.10;;
61785;SDS011;47692;53.714;11.372;2024-03-08T08:26:37;39.08;;;16.75;;
61785;SDS011;47692;53.714;11.372;2024-03-08T08:29:02;46.38;;;18.63;;
61785;SDS011;47692;53.714;11.372;2024-03-08T08:31:27;49.85;;;19.80;;
61785;SDS011;47692;53.714;11.372;2024-03-08T08:33:53;45.90;;;18.88;;
61785;SDS011;47692;53.714;11.372;2024-03-08T08:36:23;45.05;;;18.95;;
61785;SDS011;47692;53.714;11.372;2024-03-08T08:38:49;47.15;;;19.95;;
61785;SDS011;47692;53.714;11.372;2024-03-08T08:41:15;41.97;;;17.42;;
61785;SDS011;47692;53.714;11.372;2024-03-08T08:43:42;45.22;;;18.42;;
61785;SDS011;47692;53.714;11.372;2024-03-08T08:46:09;46.40;;;18.63;;
61785;SDS011;47692;53.714;11.372;2024-03-08T08:48:38;47.55;;;18.80;;
61785;SDS011;47692;53.714;11.372;2024-03-08T08:51:06;45.28;;;17.45;;
61785;SDS011;47692;53.714;11.372;2024-03-08T08:53:37;48.15;;;19.40;;
61785;SDS011;47692;53.714;11.372;2024-03-08T08:56:03;42.55;;;18.23;;
61785;SDS011;47692;53.714;11.372;2024-03-08T08:58:35;41.97;;;16.77;;
61785;SDS011;47692;53.714;11.372;2024-03-08T09:01:00;43.45;;;17.48;;
61785;SDS011;47692;53.714;11.372;2024-03-08T09:03:26;47.83;;;19.48;;
61785;SDS011;47692;53.714;11.372;2024-03-08T09:05:53;52.13;;;21.15;;
61785;SDS011;47692;53.714;11.372;2024-03-08T09:08:18;47.75;;;18.92;;
61785;SDS011;47692;53.714;11.372;2024-03-08T09:10:44;51.10;;;20.75;;
61785;SDS011;47692;53.714;11.372;2024-03-08T09:13:10;50.03;;;19.80;;
61785;SDS011;47692;53.714;11.372;2024-03-08T09:15:38;48.95;;;18.63;;
61785;SDS011;47692;53.714;11.372;2024-03-08T09:18:05;46.45;;;18.38;;
61785;SDS011;47692;53.714;11.372;2024-03-08T09:20:31;49.60;;;19.70;;
61785;SDS011;47692;53.714;11.372;2024-03-08T09:22:57;51.97;;;19.60;;
61785;SDS011;47692;53.714;11.372;2024-03-08T09:25:22;47.03;;;18.05;;
61785;SDS011;47692;53.714;11.372;2024-03-08T09:27:48;42.22;;;19.35;;
61785;SDS011;47692;53.714;11.372;2024-03-08T09:30:13;46.53;;;19.55;;
61785;SDS011;47692;53.714;11.372;2024-03-08T09:32:40;48.05;;;18.15;;
61785;SDS011;47692;53.714;11.372;2024-03-08T09:35:06;46.47;;;19.48;;
61785;SDS011;47692;53.714;11.372;2024-03-08T09:37:32;52.35;;;19.27;;
61785;SDS011;47692;53.714;11.372;2024-03-08T09:39:59;51.55;;;19.63;;
61785;SDS011;47692;53.714;11.372;2024-03-08T09:42:24;48.42;;;19.65;;
61785;SDS011;47692;53.714;11.372;2024-03-08T09:44:50;46.38;;;19.52;;
61785;SDS011;47692;53.714;11.372;2024-03-08T09:47:15;47.33;;;19.35;;
61785;SDS011;47692;53.714;11.372;2024-03-08T09:49:42;46.60;;;18.15;;
61785;SDS011;47692;53.714;11.372;2024-03-08T09:52:08;41.90;;;17.67;;
61785;SDS011;47692;53.714;11.372;2024-03-08T09:54:35;38.53;;;16.00;;
61785;SDS011;47692;53.714;11.372;2024-03-08T09:57:00;42.38;;;16.42;;
61785;SDS011;47692;53.714;11.372;2024-03-08T09:59:29;40.35;;;17.02;;
61785;SDS011;47692;53.714;11.372;2024-03-08T10:02:00;44.25;;;17.48;;
61785;SDS011;47692;53.714;11.372;2024-03-08T10:04:27;42.70;;;17.60;;
61785;SDS011;47692;53.714;11.372;2024-03-08T10:06:55;41.35;;;17.45;;
61785;SDS011;47692;53.714;11.372;2024-03-08T10:09:24;43.28;;;15.98;;
61785;SDS011;47692;53.714;11.372;2024-03-08T10:11:53;45.90;;;17.65;;
61785;SDS011;47692;53.714;11.372;2024-03-08T10:14:22;38.47;;;16.38;;
61785;SDS011;47692;53.714;11.372;2024-03-08T10:16:49;45.60;;;17.48;;
61785;SDS011;47692;53.714;11.372;2024-03-08T10:19:14;41.45;;;17.35;;
61785;SDS011;47692;53.714;11.372;2024-03-08T10:21:50;44.58;;;18.83;;
61785;SDS011;47692;53.714;11.372;2024-03-08T10:24:21;41.35;;;17.05;;
61785;SDS011;47692;53.714;11.372;2024-03-08T10:26:48;41.25;;;16.42;;
61785;SDS011;47692;53.714;11.372;2024-03-08T10:29:18;35.60;;;15.65;;
61785;SDS011;47692;53.714;11.372;2024-03-08T10:31:43;40.25;;;17.02;;
61785;SDS011;47692;53.714;11.372;2024-03-08T10:34:09;39.10;;;17.70;;
61785;SDS011;47692;53.714;11.372;2024-03-08T10:36:35;49.15;;;18.85;;
61785;SDS011;47692;53.714;11.372;2024-03-08T10:39:03;41.95;;;17.60;;
61785;SDS011;47692;53.714;11.372;2024-03-08T10:41:37;37.17;;;16.60;;
61785;SDS011;47692;53.714;11.372;2024-03-08T10:49:30;41.60;;;17.50;;
61785;SDS011;47692;53.714;11.372;2024-03-08T10:52:13;35.10;;;15.52;;
61785;SDS011;47692;53.714;11.372;2024-03-08T10:54:40;37.25;;;16.30;;
61785;SDS011;47692;53.714;11.372;2024-03-08T10:57:08;40.55;;;16.98;;
61785;SDS011;47692;53.714;11.372;2024-03-08T10:59:35;35.90;;;15.45;;
61785;SDS011;47692;53.714;11.372;2024-03-08T11:02:01;37.42;;;15.05;;
61785;SDS011;47692;53.714;11.372;2024-03-08T11:04:26;36.03;;;16.17;;
61785;SDS011;47692;53.714;11.372;2024-03-08T11:06:54;32.15;;;14.18;;
61785;SDS011;47692;53.714;11.372;2024-03-08T11:09:28;31.27;;;15.23;;
61785;SDS011;47692;53.714;11.372;2024-03-08T11:14:46;34.05;;;14.10;;
61785;SDS011;47692;53.714;11.372;2024-03-08T11:17:16;35.15;;;14.02;;
61785;SDS011;47692;53.714;11.372;2024-03-08T11:19:47;46.10;;;19.88;;
61785;SDS011;47692;53.714;11.372;2024-03-08T11:22:20;45.92;;;18.33;;
61785;SDS011;47692;53.714;11.372;2024-03-08T11:24:48;32.90;;;13.65;;
61785;SDS011;47692;53.714;11.372;2024-03-08T11:27:14;32.45;;;14.13;;
61785;SDS011;47692;53.714;11.372;2024-03-08T11:29:40;32.10;;;12.90;;
61785;SDS011;47692;53.714;11.372;2024-03-08T11:32:12;26.88;;;13.70;;
61785;SDS011;47692;53.714;11.372;2024-03-08T11:34:40;27.48;;;12.32;;
61785;SDS011;47692;53.714;11.372;2024-03-08T11:37:14;26.77;;;11.77;;
61785;SDS011;47692;53.714;11.372;2024-03-08T11:39:46;27.10;;;11.88;;
61785;SDS011;47692;53.714;11.372;2024-03-08T11:42:13;27.25;;;12.45;;
61785;SDS011;47692;53.714;11.372;2024-03-08T11:44:39;29.80;;;12.43;;
61785;SDS011;47692;53.714;11.372;2024-03-08T11:47:08;26.80;;;12.02;;
61785;SDS011;47692;53.714;11.372;2024-03-08T11:49:35;24.67;;;12.02;;
61785;SDS011;47692;53.714;11.372;2024-03-08T11:52:01;26.25;;;12.98;;
61785;SDS011;47692;53.714;11.372;2024-03-08T11:54:27;24.70;;;11.80;;
61785;SDS011;47692;53.714;11.372;2024-03-08T11:56:55;26.90;;;10.18;;
61785;SDS011;47692;53.714;11.372;2024-03-08T11:59:25;20.50;;;9.32;;
61785;SDS011;47692;53.714;11.372;2024-03-08T12:02:01;21.92;;;10.00;;
61785;SDS011;47692;53.714;11.372;2024-03-08T12:04:31;23.45;;;10.38;;
61785;SDS011;47692;53.714;11.372;2024-03-08T12:07:00;22.88;;;10.50;;
61785;SDS011;47692;53.714;11.372;2024-03-08T12:09:34;22.80;;;10.75;;
61785;SDS011;47692;53.714;11.372;2024-03-08T12:12:01;24.30;;;11.20;;
61785;SDS011;47692;53.714;11.372;2024-03-08T12:14:28;21.42;;;10.18;;
61785;SDS011;47692;53.714;11.372;2024-03-08T12:16:54;23.45;;;11.13;;
61785;SDS011;47692;53.714;11.372;2024-03-08T12:19:19;23.08;;;10.55;;
61785;SDS011;47692;53.714;11.372;2024-03-08T12:21:45;23.45;;;10.88;;
61785;SDS011;47692;53.714;11.372;2024-03-08T12:24:14;27.50;;;11.32;;
61785;SDS011;47692;53.714;11.372;2024-03-08T12:26:44;21.58;;;10.98;;
61785;SDS011;47692;53.714;11.372;2024-03-08T12:29:16;21.95;;;11.02;;
61785;SDS011;47692;53.714;11.372;2024-03-08T12:31:45;22.27;;;10.85;;
61785;SDS011;47692;53.714;11.372;2024-03-08T12:34:11;19.23;;;9.82;;
61785;SDS011;47692;53.714;11.372;2024-03-08T12:36:43;19.58;;;9.35;;
61785;SDS011;47692;53.714;11.372;2024-03-08T12:39:12;19.13;;;9.55;;
61785;SDS011;47692;53.714;11.372;2024-03-08T12:41:40;20.40;;;10.05;;
61785;SDS011;47692;53.714;11.372;2024-03-08T12:44:06;22.35;;;10.57;;
61785;SDS011;47692;53.714;11.372;2024-03-08T12:46:32;20.80;;;10.93;;
61785;SDS011;47692;53.714;11.372;2024-03-08T12:48:58;21.50;;;11.23;;
61785;SDS011;47692;53.714;11.372;2024-03-08T12:51:24;21.10;;;10.85;;
61785;SDS011;47692;53.714;11.372;2024-03-08T12:53:50;22.35;;;11.38;;
61785;SDS011;47692;53.714;11.372;2024-03-08T12:56:28;19.42;;;9.98;;
61785;SDS011;47692;53.714;11.372;2024-03-08T12:58:55;25.63;;;11.70;;
61785;SDS011;47692;53.714;11.372;2024-03-08T13:01:21;22.30;;;11.52;;
61785;SDS011;47692;53.714;11.372;2024-03-08T13:03:49;24.15;;;11.15;;
61785;SDS011;47692;53.714;11.372;2024-03-08T13:06:15;19.63;;;10.48;;
61785;SDS011;47692;53.714;11.372;2024-03-08T13:08:40;22.40;;;11.10;;
61785;SDS011;47692;53.714;11.372;2024-03-08T13:11:09;19.23;;;8.68;;
61785;SDS011;47692;53.714;11.372;2024-03-08T13:13:39;18.90;;;9.40;;
61785;SDS011;47692;53.714;11.372;2024-03-08T13:16:05;22.25;;;10.30;;
61785;SDS011;47692;53.714;11.372;2024-03-08T13:18:33;21.63;;;11.18;;
61785;SDS011;47692;53.714;11.372;2024-03-08T13:20:59;18.35;;;9.85;;
61785;SDS011;47692;53.714;11.372;2024-03-08T13:23:29;21.27;;;10.48;;
61785;SDS011;47692;53.714;11.372;2024-03-08T13:25:55;22.10;;;9.35;;
61785;SDS011;47692;53.714;11.372;2024-03-08T13:28:22;17.70;;;9.00;;
61785;SDS011;47692;53.714;11.372;2024-03-08T13:30:52;17.00;;;8.50;;
61785;SDS011;47692;53.714;11.372;2024-03-08T13:33:18;19.13;;;9.10;;
61785;SDS011;47692;53.714;11.372;2024-03-08T13:35:44;18.30;;;9.07;;
61785;SDS011;47692;53.714;11.372;2024-03-08T13:38:09;18.80;;;9.20;;
61785;SDS011;47692;53.714;11.372;2024-03-08T13:40:38;17.88;;;9.35;;
61785;SDS011;47692;53.714;11.372;2024-03-08T13:43:05;15.93;;;8.23;;
61785;SDS011;47692;53.714;11.372;2024-03-08T13:45:32;18.88;;;8.80;;
61785;SDS011;47692;53.714;11.372;2024-03-08T13:47:58;18.70;;;9.73;;
61785;SDS011;47692;53.714;11.372;2024-03-08T13:50:24;20.08;;;10.07;;
61785;SDS011;47692;53.714;11.372;2024-03-08T13:52:51;23.83;;;10.60;;
61785;SDS011;47692;53.714;11.372;2024-03-08T13:55:20;23.70;;;10.38;;
61785;SDS011;47692;53.714;11.372;2024-03-08T13:57:47;20.45;;;9.80;;
61785;SDS011;47692;53.714;11.372;2024-03-08T14:00:13;19.95;;;10.00;;
61785;SDS011;47692;53.714;11.372;2024-03-08T14:02:39;19.70;;;10.57;;
61785;SDS011;47692;53.714;11.372;2024-03-08T14:05:06;19.48;;;10.65;;
61785;SDS011;47692;53.714;11.372;2024-03-08T14:07:34;18.05;;;10.00;;
61785;SDS011;47692;53.714;11.372;2024-03-08T14:09:59;24.42;;;11.27;;
61785;SDS011;47692;53.714;11.372;2024-03-08T14:12:24;21.55;;;9.90;;
61785;SDS011;47692;53.714;11.372;2024-03-08T14:14:51;22.65;;;11.27;;
61785;SDS011;47692;53.714;11.372;2024-03-08T14:17:17;20.52;;;10.60;;